Record high temperature 100.8°F Record low temperature -75.5°F Record high gust 121.0 mph Record high average 61.8 mph Record daily rain 2.61 in. Record low windchill -106.6°F Record high barometer 31.889 in. Record low barometer 23.642 in.
Daily high pressure 29.771 in. Daily low pressure 29.733 in. Daily low windchill 29.2°F Daily high heat index 42.1°F Daily high gust speed 21.0 mph SW Daily high average speed 10.1 mph WSW
Weather Data
LAST READING AT TIME: 4:10 AM DATE: March 03 2015, time of next update: 04:20 am
Current WeatherNight time/Dry Current Temperature 35.9°F (2.2°C), Apparent temp 31.0°F
Maximum Temperature (since midnight)42.1°F at: 1:54 AM Minimum Temperature (since midnight)29.4°F at: 12:28 AM
Average windspeed (ten minute)1.8 mph Wind Direction (ten minute)SSW (199°)
Windchill Temperature 34.7°F Maximum Gust (last hour)7.4 mph at: 3:18 AM
Maximum Gust (since midnight)21.0 mph at: 1:38 AM Maximum 1 minute average (since midnight)10.1 mph at: 1:39 AM
Rainfall (last hour)0.00 in. (0.0 mm) Rainfall (since midnight)0.00 in. (0.0 mm) ---
Rainfall This month 0.04 in. (1.0 mm) Rainfall To date this year 1.62 in. (41.2 mm)
Maximum rain per minute (last hour)0.00 in/min Maximum rain per hour (last 6 hours)0.00 in/hour
Yesterdays rainfall 0.03 in DewPoint 14.5°F (Wet Bulb :29.4°F )
Humidity 41 %, Humidex 28.8°F Barometer corrected to msl29.767 in. (1008.0 hPa)
Pressure change +0.01 in. (last hour) Trend (last hour)STEADY
Pressure change (last 12 hours)-0.04 in Pressure change (last 6 hours)+0.04 in

This page is updated from recent data collected by a DAVIS WMII weather station Use the Reload or Refresh facility on your browser to retrieve the latest data.


Click here for the last 24 hour graph
Click here for the last 48 hour graph
Click here for the last 72 hour graph
Click here for the month to date graph


Weather report/warning/Metars

COLORADO SPRINGS MUNI, CO, United States (KCOS) 38-49N 104-43W 1856M
Mar 03, 2015 - 04:54 AM EST / 2015.03.03 0954 UTC
Wind: from the WSW (250 degrees) at 16 MPH (14 KT):0
Visibility: 10 mile(s):0
Sky conditions: mostly clear
Temperature: 37.0 F (2.8 C)
Dew Point: 10.9 F (-11.7 C)
Relative Humidity: 33%
Pressure (altimeter): 29.67 in. Hg (1004 hPa)
ob: KCOS 030954Z 25014KT 10SM FEW150 03/M12 A2967 RMK AO2 PK WND 26029/0918 SLP059 T00281117
cycle: 10
Air Force Academy, CO, United States (KAFF) 38-58N 104-49W 1999M
Mar 03, 2015 - 04:58 AM EST / 2015.03.03 0958 UTC
Wind: from the NW (310 degrees) at 9 MPH (8 KT):0
Visibility: 10 mile(s):0
Sky conditions: clear
Temperature: 35.2 F (1.8 C)
Dew Point: 9.1 F (-12.7 C)
Relative Humidity: 33%
Pressure (altimeter): 29.66 in. Hg (1004 hPa)
ob: KAFF 030958Z AUTO 31008KT 10SM CLR 02/M13 A2966 RMK AO2 PK WND 25032/04 SLP051 T00181127
cycle: 10
Fort Carson, CO, United States (KFCS) 38-42N 104-46W 1789M
Mar 03, 2015 - 04:58 AM EST / 2015.03.03 0958 UTC
Wind: Variable at 2 MPH (2 KT):0
Visibility: 10 mile(s):0
Sky conditions: partly cloudy
Temperature: 38.3 F (3.5 C)
Dew Point: 10.2 F (-12.1 C)
Relative Humidity: 30%
Pressure (altimeter): 29.67 in. Hg (1004 hPa)
ob: KFCS 030958Z VRB02KT 10SM SCT120 04/M12 A2967 RMK AO2A SLP077 T00351121
cycle: 10



The data is logged at two minute intervals, but there is data recorded every minute. Best viewed in 800 x 600 and True colour.

Use the RELOAD facility on your browser to retrieve the latest data.

Click here for a daily update of the averages/extremes to date for the month
Created by "Weather Display" software version 10.37R Build 78 at this start time/date 03:17 am 2/26/2015